Time;durP1;ratioP1;P1;durP2;ratioP2;P2;SDS_P1;SDS_P2;PMS_P1;PMS_P2;Temp;Humidity;BMP_temperature;BMP_pressure;BME280_temperature;BME280_humidity;BME280_pressure;Samples;Min_cycle;Max_cycle;Signal;HPM_P1;HPM_P2
2021/03/20 00:01:08;;;;;;;3.73;1.70;;;;;;;14.43;43.90;100379.56;4986045;28;20058;-65
2021/03/20 00:03:35;;;;;;;2.87;1.60;;;;;;;14.35;43.75;100369.03;4982727;28;20074;-64
2021/03/20 00:06:03;;;;;;;2.57;1.70;;;;;;;14.42;43.65;100380.69;4991017;28;20047;-63
2021/03/20 00:08:41;;;;;;;2.20;1.70;;;;;;;14.45;43.81;100393.28;4986973;28;20515;-64
2021/03/20 00:11:07;;;;;;;3.33;1.90;;;;;;;14.43;43.50;100393.63;4987213;28;23528;-63
2021/03/20 00:13:34;;;;;;;3.13;1.80;;;;;;;14.40;43.86;100394.22;4985057;28;20122;-64
2021/03/20 00:16:00;;;;;;;4.37;1.97;;;;;;;14.37;43.95;100388.41;4985458;28;21292;-65
2021/03/20 00:18:28;;;;;;;4.47;1.60;;;;;;;14.28;43.76;100365.78;4979810;28;20485;-66
2021/03/20 00:20:55;;;;;;;3.33;1.90;;;;;;;14.39;43.70;100391.72;4988386;28;20058;-65
2021/03/20 00:23:22;;;;;;;4.47;1.97;;;;;;;14.30;43.60;100371.94;4982414;28;20464;-64
2021/03/20 00:25:51;;;;;;;4.63;1.97;;;;;;;14.39;43.73;100386.09;4985949;28;20050;-65
2021/03/20 00:28:23;;;;;;;1.70;1.30;;;;;;;14.37;43.76;100378.00;4976200;28;20492;-64
2021/03/20 00:30:52;;;;;;;3.07;1.60;;;;;;;14.37;43.69;100377.16;4978673;28;20133;-62
2021/03/20 00:33:19;;;;;;;3.27;1.73;;;;;;;14.38;43.79;100390.88;4970897;28;20054;-64
2021/03/20 00:35:46;;;;;;;1.97;1.33;;;;;;;14.38;43.60;100390.06;4983290;28;20054;-64
2021/03/20 00:38:14;;;;;;;1.97;1.33;;;;;;;14.37;43.67;100408.06;4973841;28;20134;-65
2021/03/20 00:40:40;;;;;;;3.80;1.70;;;;;;;14.37;43.57;100406.09;4980616;28;20403;-65
2021/03/20 00:43:07;;;;;;;3.40;1.40;;;;;;;14.31;43.63;100407.31;4987333;28;20046;-64
2021/03/20 00:45:34;;;;;;;2.33;1.40;;;;;;;14.34;43.76;100394.63;4985858;28;20057;-65
2021/03/20 00:48:17;;;;;;;3.90;1.80;;;;;;;14.30;43.78;100380.38;4974974;28;20129;-65
2021/03/20 00:50:44;;;;;;;2.80;2.00;;;;;;;14.31;43.55;100381.22;4981596;28;20129;-65
2021/03/20 00:53:10;;;;;;;2.90;1.60;;;;;;;14.19;43.66;100376.09;4972315;28;20055;-64
2021/03/20 00:55:37;;;;;;;3.90;1.70;;;;;;;14.23;43.60;100402.41;4970641;28;20050;-64
2021/03/20 00:58:25;;;;;;;5.23;1.73;;;;;;;14.20;43.62;100405.84;4970037;28;20551;-67
2021/03/20 01:00:58;;;;;;;2.27;1.60;;;;;;;14.19;43.80;100404.19;4961503;28;20407;-65
2021/03/20 01:03:24;;;;;;;2.67;1.20;;;;;;;14.18;43.70;100414.56;4964531;28;20411;-66
2021/03/20 01:05:52;;;;;;;2.07;1.50;;;;;;;14.08;43.65;100397.88;4971511;28;20042;-66
2021/03/20 01:08:19;;;;;;;4.63;1.83;;;;;;;14.11;43.79;100404.88;4966027;28;20057;-66
2021/03/20 01:10:46;;;;;;;7.83;1.53;;;;;;;14.08;43.72;100406.31;4969967;28;20065;-65
2021/03/20 01:13:14;;;;;;;3.03;1.50;;;;;;;14.04;43.81;100401.63;4968183;28;20487;-65
2021/03/20 01:15:41;;;;;;;1.77;1.33;;;;;;;13.99;43.97;100397.78;4969386;28;20045;-66
2021/03/20 01:18:08;;;;;;;2.53;1.50;;;;;;;13.99;43.75;100406.19;4967775;28;20050;-65
2021/03/20 01:20:36;;;;;;;3.87;1.60;;;;;;;13.96;43.78;100406.81;4963319;28;20054;-64
2021/03/20 01:23:04;;;;;;;2.73;1.90;;;;;;;13.90;43.89;100410.00;4967227;28;20046;-66
2021/03/20 01:25:32;;;;;;;1.90;1.20;;;;;;;13.94;43.98;100414.69;4963058;28;20411;-63
2021/03/20 01:27:58;;;;;;;4.50;1.53;;;;;;;13.89;43.97;100417.59;4964967;28;20061;-66
2021/03/20 01:30:34;;;;;;;3.33;0.97;;;;;;;13.85;43.89;100410.94;4970046;28;20093;-65
2021/03/20 01:33:01;;;;;;;2.37;1.10;;;;;;;13.86;43.82;100418.22;4965482;28;20057;-64
2021/03/20 01:35:28;;;;;;;4.73;1.23;;;;;;;13.90;43.78;100413.66;4968213;28;20062;-62
2021/03/20 01:37:55;;;;;;;3.23;0.87;;;;;;;13.74;43.83;100392.56;4958726;28;20130;-66
2021/03/20 01:40:29;;;;;;;3.50;1.73;;;;;;;13.84;43.81;100403.63;4961837;28;20109;-62
2021/03/20 01:42:55;;;;;;;1.83;0.90;;;;;;;13.84;43.86;100411.22;4959518;28;20047;-67
2021/03/20 01:45:29;;;;;;;4.50;1.23;;;;;;;13.77;44.00;100400.38;4963293;28;20053;-66
2021/03/20 01:48:00;;;;;;;2.70;0.97;;;;;;;13.75;44.08;100388.66;4972224;28;20054;-65
2021/03/20 01:50:33;;;;;;;1.37;0.80;;;;;;;13.73;44.15;100399.34;4956655;28;20050;-66
2021/03/20 01:53:05;;;;;;;1.40;1.07;;;;;;;13.71;44.32;100398.84;4975170;28;20455;-65
2021/03/20 01:55:31;;;;;;;3.93;1.07;;;;;;;13.79;44.02;100411.31;4981703;28;20058;-71
2021/03/20 01:58:01;;;;;;;1.67;0.90;;;;;;;13.78;43.94;100404.88;4987029;28;20056;-64
2021/03/20 02:00:38;;;;;;;2.80;1.40;;;;;;;13.79;43.95;100414.97;4982349;28;20042;-65
2021/03/20 02:03:11;;;;;;;5.27;1.10;;;;;;;13.78;43.87;100407.69;4984288;28;20050;-65
2021/03/20 02:05:38;;;;;;;1.17;0.90;;;;;;;13.73;43.85;100408.59;4977833;28;20182;-65
2021/03/20 02:08:06;;;;;;;0.93;0.80;;;;;;;13.70;43.96;100409.19;4981931;28;20047;-65
2021/03/20 02:10:36;;;;;;;1.30;0.90;;;;;;;13.72;43.97;100415.34;4981832;28;20077;-66
2021/03/20 02:13:22;;;;;;;1.13;0.87;;;;;;;13.56;44.12;100396.25;4978929;28;20484;-67
2021/03/20 02:16:09;;;;;;;3.80;1.40;;;;;;;13.64;44.18;100424.47;4982384;28;20046;-66
2021/03/20 02:18:51;;;;;;;1.93;1.10;;;;;;;13.48;44.19;100406.19;4982839;28;20046;-65
2021/03/20 02:21:39;;;;;;;2.40;1.40;;;;;;;13.57;44.19;100431.56;4981288;28;20050;-65
2021/03/20 02:24:05;;;;;;;3.07;1.23;;;;;;;13.58;44.31;100433.25;4987280;28;20068;-65
2021/03/20 02:27:08;;;;;;;2.73;1.23;;;;;;;13.52;44.39;100436.13;4979480;28;20766;-66
2021/03/20 02:30:03;;;;;;;2.60;1.57;;;;;;;13.50;44.43;100443.19;4979425;28;20411;-64
2021/03/20 02:32:35;;;;;;;2.77;1.90;;;;;;;13.52;44.33;100450.16;4982513;28;20050;-65
2021/03/20 02:35:05;;;;;;;4.10;2.23;;;;;;;13.41;44.39;100440.22;4986286;28;20047;-66
2021/03/20 02:37:32;;;;;;;2.22;1.40;;;;;;;13.46;44.46;100456.97;4987355;28;20133;-66
2021/03/20 02:40:17;;;;;;;2.20;1.50;;;;;;;13.43;44.63;100445.53;4983663;28;20054;-64
2021/03/20 02:42:46;;;;;;;3.20;1.77;;;;;;;13.40;44.67;100454.53;4981635;28;20051;-69
2021/03/20 02:45:22;;;;;;;1.93;1.53;;;;;;;13.38;44.60;100460.47;4974034;28;20049;-62
2021/03/20 02:47:59;;;;;;;2.90;2.17;;;;;;;13.35;44.77;100449.03;4985073;28;20047;-62
2021/03/20 02:50:45;;;;;;;4.57;2.10;;;;;;;13.35;44.48;100457.44;4980234;28;20046;-63
2021/03/20 02:53:38;;;;;;;3.60;1.50;;;;;;;13.32;44.46;100458.88;4961420;28;20134;-63
2021/03/20 02:56:09;;;;;;;2.97;1.83;;;;;;;13.33;44.84;100460.53;4963964;28;20054;-64
2021/03/20 02:58:48;;;;;;;2.87;1.93;;;;;;;13.30;44.73;100463.97;4960448;28;20484;-64
2021/03/20 03:01:19;;;;;;;2.47;1.37;;;;;;;13.33;44.51;100463.31;4961554;28;20319;-63
2021/03/20 03:03:49;;;;;;;3.20;1.50;;;;;;;13.32;44.83;100470.09;4959166;28;20665;-64
2021/03/20 03:06:35;;;;;;;3.20;1.77;;;;;;;13.24;44.87;100480.00;4950201;28;20496;-64
2021/03/20 03:09:12;;;;;;;3.90;1.93;;;;;;;13.23;44.85;100477.44;4967344;28;20046;-63
2021/03/20 03:11:55;;;;;;;5.20;1.73;;;;;;;13.17;45.13;100490.72;4955527;28;20408;-62
2021/03/20 03:14:34;;;;;;;4.17;1.97;;;;;;;13.27;44.80;100493.44;4961934;28;20039;-68
2021/03/20 03:17:02;;;;;;;3.05;1.92;;;;;;;13.28;44.83;100485.84;4958110;28;20047;-68
2021/03/20 03:19:49;;;;;;;2.17;1.63;;;;;;;13.29;44.88;100493.13;4961352;28;20484;-69
2021/03/20 03:22:24;;;;;;;3.10;1.80;;;;;;;13.36;44.60;100498.34;4965650;28;20527;-64
2021/03/20 03:24:58;;;;;;;3.13;1.90;;;;;;;13.26;44.60;100482.50;4959283;28;20058;-65
2021/03/20 03:27:28;;;;;;;4.57;2.07;;;;;;;13.30;44.79;100499.56;4944005;28;20470;-67
2021/03/20 03:29:54;;;;;;;;;;;;;;;13.26;44.86;100503.00;4963349;28;20389;-67
2021/03/20 03:32:39;;;;;;;3.73;1.70;;;;;;;13.18;44.88;100499.97;4958041;28;19930;-65
2021/03/20 03:35:30;;;;;;;2.50;1.40;;;;;;;13.03;45.32;100501.00;4958563;28;20063;-66
2021/03/20 03:38:23;;;;;;;2.63;1.63;;;;;;;12.95;45.59;100508.06;4961037;28;20047;-64
2021/03/20 03:40:57;;;;;;;;;;;;;;;12.70;46.15;100502.75;4960743;28;20057;-68
2021/03/20 03:43:28;;;;;;;3.23;1.80;;;;;;;12.62;46.39;100497.81;4959639;28;20014;-63
2021/03/20 03:45:54;;;;;;;3.80;1.70;;;;;;;12.65;45.86;100492.44;4952641;28;20047;-64
2021/03/20 03:48:23;;;;;;;2.63;1.70;;;;;;;12.71;45.76;100510.84;4963213;28;20134;-62
2021/03/20 03:50:51;;;;;;;1.37;0.90;;;;;;;12.81;45.10;100519.16;4962192;28;20053;-62
2021/03/20 03:53:28;;;;;;;2.30;1.53;;;;;;;12.87;44.92;100531.16;4978640;28;20558;-63
2021/03/20 03:55:58;;;;;;;1.73;1.20;;;;;;;12.48;44.76;100467.69;4984946;28;20541;-63
2021/03/20 03:59:04;;;;;;;2.17;1.23;;;;;;;12.92;44.48;100531.13;4969269;28;20082;-65
2021/03/20 04:02:00;;;;;;;1.67;0.90;;;;;;;12.72;44.49;100511.72;4946833;28;20452;-65
2021/03/20 04:04:55;;;;;;;2.87;1.07;;;;;;;12.90;44.16;100530.56;4991052;28;20050;-67
2021/03/20 04:07:45;;;;;;;1.83;0.97;;;;;;;12.85;44.21;100527.78;4988563;28;20051;-68
2021/03/20 04:10:17;;;;;;;0.87;0.70;;;;;;;12.63;43.79;100502.28;4989553;28;20055;-69
2021/03/20 04:13:13;;;;;;;1.00;0.85;;;;;;;12.61;44.01;100526.94;4984015;28;20050;-68
2021/03/20 04:16:01;;;;;;;1.70;1.20;;;;;;;12.69;43.84;100529.94;4984502;28;20750;-67
2021/03/20 04:18:55;;;;;;;0.70;0.70;;;;;;;12.55;43.82;100532.59;4985273;28;20129;-67
2021/03/20 04:21:31;;;;;;;3.17;0.90;;;;;;;12.59;43.56;100535.63;4983550;28;20057;-67
2021/03/20 04:24:36;;;;;;;3.37;1.10;;;;;;;12.67;43.75;100539.75;4982682;28;20046;-66
2021/03/20 04:27:16;;;;;;;1.87;0.80;;;;;;;12.74;43.38;100543.06;4956293;28;20510;-66
2021/03/20 04:30:04;;;;;;;1.27;1.00;;;;;;;12.76;43.34;100535.19;4984795;28;20056;-67
2021/03/20 04:32:42;;;;;;;2.87;1.50;;;;;;;12.74;43.34;100555.09;4984813;28;20038;-65
2021/03/20 04:35:24;;;;;;;1.60;1.10;;;;;;;12.72;43.18;100537.75;4985700;28;20428;-66
2021/03/20 04:38:04;;;;;;;2.73;1.23;;;;;;;12.63;43.00;100530.28;4985437;28;20467;-67
2021/03/20 04:40:40;;;;;;;1.57;1.03;;;;;;;12.75;43.14;100553.97;4981603;28;20054;-63
2021/03/20 04:43:14;;;;;;;0.77;0.53;;;;;;;12.69;42.91;100557.97;4984188;28;20456;-64
2021/03/20 04:45:47;;;;;;;1.60;0.77;;;;;;;12.55;43.16;100559.78;4986655;28;20053;-64
2021/03/20 04:48:34;;;;;;;2.10;0.93;;;;;;;12.56;42.82;100567.88;4981119;28;20052;-64
2021/03/20 04:51:09;;;;;;;2.73;0.80;;;;;;;12.56;42.65;100565.06;4979437;28;20515;-66
2021/03/20 04:53:38;;;;;;;1.93;1.37;;;;;;;12.63;42.59;100575.94;4987036;28;20057;-66
2021/03/20 04:56:11;;;;;;;2.07;0.87;;;;;;;12.54;42.57;100570.13;4971866;28;20472;-63
2021/03/20 04:58:55;;;;;;;1.73;1.00;;;;;;;12.65;42.47;100586.84;4986332;28;20046;-59
2021/03/20 05:01:22;;;;;;;1.10;0.80;;;;;;;12.68;42.40;100601.09;4984486;28;20137;-61
2021/03/20 05:04:01;;;;;;;1.20;0.80;;;;;;;12.61;42.25;100582.97;4981434;28;20042;-63
2021/03/20 05:06:31;;;;;;;3.27;0.80;;;;;;;12.69;42.15;100596.34;4988414;28;20782;-63
2021/03/20 05:09:04;;;;;;;1.00;0.80;;;;;;;12.55;42.14;100588.63;4979928;28;20047;-62
2021/03/20 05:11:37;;;;;;;;;;;;;;;12.64;41.98;100610.38;4987457;28;20089;-64
2021/03/20 05:14:36;;;;;;;1.60;1.03;;;;;;;12.52;42.08;100608.81;4986576;28;20433;-64
2021/03/20 05:17:09;;;;;;;1.13;0.80;;;;;;;12.43;41.75;100604.94;4980861;28;20050;-67
2021/03/20 05:19:43;;;;;;;0.60;0.60;;;;;;;12.40;41.84;100613.09;4981933;28;20142;-67
2021/03/20 05:22:25;;;;;;;0.77;0.63;;;;;;;12.37;41.79;100617.31;4973283;28;20129;-67
2021/03/20 05:24:54;;;;;;;1.57;0.83;;;;;;;12.38;41.56;100620.97;4982431;28;20054;-67
2021/03/20 05:27:26;;;;;;;1.80;0.60;;;;;;;12.35;41.45;100632.75;4979163;28;20046;-68
2021/03/20 05:29:56;;;;;;;1.20;0.80;;;;;;;12.36;41.33;100629.66;4982211;28;20059;-68
2021/03/20 05:32:29;;;;;;;0.80;0.60;;;;;;;12.33;41.33;100624.63;4982120;28;20054;-68
2021/03/20 05:34:58;;;;;;;2.60;0.80;;;;;;;12.33;41.21;100638.63;4984919;28;20076;-66
2021/03/20 05:37:26;;;;;;;0.80;0.70;;;;;;;12.33;41.21;100633.88;4981135;28;20050;-65
2021/03/20 05:39:55;;;;;;;1.00;0.70;;;;;;;12.35;41.00;100643.97;4985721;28;20448;-66
2021/03/20 05:42:40;;;;;;;1.70;1.10;;;;;;;12.31;41.03;100640.91;4980991;28;20414;-66
2021/03/20 05:45:28;;;;;;;1.10;0.50;;;;;;;12.28;40.79;100652.69;4987217;28;20046;-66
2021/03/20 05:48:04;;;;;;;0.40;0.40;;;;;;;12.22;40.68;100663.06;4983975;28;20057;-66
2021/03/20 05:50:45;;;;;;;4.30;1.00;;;;;;;12.14;40.58;100672.09;4981782;28;20060;-65
2021/03/20 05:53:32;;;;;;;3.60;0.77;;;;;;;12.16;40.58;100661.41;4969018;28;20051;-65
2021/03/20 05:56:08;;;;;;;0.83;0.53;;;;;;;12.12;40.65;100670.69;4958078;28;20046;-66
2021/03/20 05:58:49;;;;;;;1.83;0.60;;;;;;;12.16;40.29;100681.00;4956971;28;20435;-65
2021/03/20 06:01:23;;;;;;;1.57;0.83;;;;;;;12.14;40.21;100683.28;4958498;28;20050;-65
2021/03/20 06:04:11;;;;;;;1.93;1.13;;;;;;;12.11;40.32;100680.22;4950678;28;20047;-66
2021/03/20 06:06:46;;;;;;;0.50;0.50;;;;;;;12.09;40.43;100692.53;4960126;28;20843;-65
2021/03/20 06:09:33;;;;;;;0.80;0.50;;;;;;;12.09;40.33;100695.31;4958287;28;20403;-67
2021/03/20 06:12:11;;;;;;;1.93;0.77;;;;;;;12.08;40.23;100698.41;4954924;28;20057;-65
2021/03/20 06:14:51;;;;;;;0.80;0.60;;;;;;;12.09;40.14;100705.69;4960218;28;20047;-65
2021/03/20 06:18:01;;;;;;;0.70;0.60;;;;;;;12.09;39.97;100708.47;4960881;28;20051;-66
2021/03/20 06:20:46;;;;;;;;;;;;;;;12.12;40.06;100721.06;4961491;28;20051;-66
2021/03/20 06:23:34;;;;;;;0.70;0.50;;;;;;;11.67;39.80;100652.94;4964126;28;19922;-65
2021/03/20 06:26:04;;;;;;;2.67;0.83;;;;;;;12.00;39.58;100729.78;4961678;28;20051;-64
2021/03/20 06:28:40;;;;;;;0.60;0.60;;;;;;;11.97;39.70;100736.81;4959911;28;20058;-69
2021/03/20 06:31:16;;;;;;;1.67;0.50;;;;;;;11.92;39.66;100738.78;4967379;28;20320;-65
2021/03/20 06:33:52;;;;;;;1.33;0.50;;;;;;;11.89;39.89;100748.56;4959597;28;20047;-64
2021/03/20 06:36:27;;;;;;;1.93;0.90;;;;;;;11.82;39.58;100736.81;4955521;28;20047;-61
2021/03/20 06:39:19;;;;;;;1.10;0.70;;;;;;;11.91;39.47;100751.94;4949307;28;20057;-61
2021/03/20 06:41:48;;;;;;;1.17;0.70;;;;;;;11.93;39.51;100763.69;4958928;28;20066;-61
2021/03/20 06:44:29;;;;;;;1.80;0.80;;;;;;;11.94;39.52;100765.38;4965674;28;20051;-60
2021/03/20 06:46:55;;;;;;;;;;;;;;;11.96;39.43;100763.09;4959081;28;20055;-61
2021/03/20 06:49:27;;;;;;;2.77;0.70;;;;;;;11.91;39.37;100782.72;4959998;28;19922;-60
2021/03/20 06:51:55;;;;;;;3.57;0.67;;;;;;;11.87;39.33;100775.19;4968145;28;20046;-60
2021/03/20 06:54:22;;;;;;;1.43;0.90;;;;;;;11.85;39.30;100767.91;4984841;28;20545;-60
2021/03/20 06:56:51;;;;;;;4.33;0.73;;;;;;;11.76;39.42;100774.31;4983689;28;20047;-60
2021/03/20 06:59:20;;;;;;;3.80;0.73;;;;;;;11.83;39.13;100767.34;4982884;28;20506;-58
2021/03/20 07:01:56;;;;;;;1.45;0.82;;;;;;;11.87;38.98;100775.19;4978485;28;20043;-62
2021/03/20 07:04:57;;;;;;;0.83;0.57;;;;;;;11.98;39.04;100786.06;4980098;28;20049;-63
2021/03/20 07:07:48;;;;;;;3.15;0.63;;;;;;;12.11;38.75;100797.78;4978293;28;20046;-61
2021/03/20 07:10:23;;;;;;;1.33;0.97;;;;;;;12.24;38.59;100797.16;4982446;28;20137;-63
2021/03/20 07:13:23;;;;;;;1.33;0.67;;;;;;;12.38;38.53;100791.81;4983193;28;20141;-59
2021/03/20 07:16:13;;;;;;;2.47;1.40;;;;;;;12.62;38.57;100798.41;4985901;28;20459;-61
2021/03/20 07:18:45;;;;;;;1.00;0.90;;;;;;;12.70;38.22;100797.78;4988108;28;20046;-59
2021/03/20 07:21:40;;;;;;;1.27;0.70;;;;;;;12.84;38.39;100806.41;4989217;28;20050;-61
2021/03/20 07:24:30;;;;;;;1.77;0.90;;;;;;;12.98;38.17;100807.41;4989117;28;20042;-59
2021/03/20 07:27:23;;;;;;;1.33;0.98;;;;;;;13.10;38.33;100815.50;4979349;28;20054;-59
2021/03/20 07:29:54;;;;;;;2.67;1.10;;;;;;;13.28;38.04;100822.41;4983318;28;20046;-59
2021/03/20 07:32:29;;;;;;;1.37;1.00;;;;;;;13.43;37.86;100825.06;4982308;28;20503;-59
2021/03/20 07:35:21;;;;;;;1.33;0.97;;;;;;;13.65;37.72;100820.97;4985243;28;20043;-59
2021/03/20 07:37:52;;;;;;;2.23;1.23;;;;;;;13.88;37.65;100827.75;4987240;28;20054;-58
2021/03/20 07:40:33;;;;;;;2.97;1.20;;;;;;;14.08;37.43;100830.34;4981009;28;20050;-59
2021/03/20 07:43:20;;;;;;;2.50;0.87;;;;;;;14.34;37.66;100838.50;4981721;28;20049;-59
2021/03/20 07:45:48;;;;;;;1.03;0.80;;;;;;;14.54;37.23;100832.66;4984876;28;20141;-58
2021/03/20 07:48:27;;;;;;;4.93;1.20;;;;;;;14.86;37.02;100846.00;4985143;28;20133;-59
2021/03/20 07:51:00;;;;;;;3.30;1.05;;;;;;;15.16;36.41;100843.91;4984306;28;20042;-59
2021/03/20 07:53:30;;;;;;;1.63;1.10;;;;;;;15.40;35.94;100836.19;4967783;28;20061;-59
2021/03/20 07:56:13;;;;;;;2.88;1.45;;;;;;;15.69;35.91;100854.91;4967566;28;20061;-58
2021/03/20 07:59:00;;;;;;;4.57;1.90;;;;;;;15.95;35.46;100857.25;4965456;28;20463;-59
2021/03/20 08:01:32;;;;;;;2.27;0.97;;;;;;;16.10;34.96;100832.47;4966880;28;20055;-59
2021/03/20 08:04:04;;;;;;;5.57;1.57;;;;;;;16.51;34.72;100844.91;4964066;28;20146;-59
2021/03/20 08:06:31;;;;;;;3.60;1.20;;;;;;;16.75;34.24;100862.47;4964473;28;20075;-59
2021/03/20 08:09:19;;;;;;;2.50;1.00;;;;;;;16.91;34.23;100850.84;4961737;28;20057;-59
2021/03/20 08:12:11;;;;;;;1.90;1.10;;;;;;;17.12;34.24;100859.69;4960662;28;20615;-58
2021/03/20 08:15:03;;;;;;;2.93;1.40;;;;;;;17.35;33.67;100847.28;4965426;28;20050;-59
2021/03/20 08:17:32;;;;;;;2.83;1.50;;;;;;;17.57;33.24;100837.97;4968020;28;20131;-59
2021/03/20 08:19:59;;;;;;;4.68;2.00;;;;;;;17.99;32.72;100869.72;4965744;28;20055;-58
2021/03/20 08:23:12;;;;;;;3.73;2.00;;;;;;;18.15;33.02;100871.00;4966353;28;20065;-58
2021/03/20 08:25:58;;;;;;;6.15;1.75;;;;;;;18.42;32.21;100867.09;4959079;28;20520;-59
2021/03/20 08:29:06;;;;;;;6.28;1.98;;;;;;;18.69;31.78;100868.88;4968055;28;20066;-60
2021/03/20 08:32:12;;;;;;;3.17;1.48;;;;;;;18.98;31.62;100876.00;4966413;28;20054;-59
2021/03/20 08:35:05;;;;;;;5.18;1.58;;;;;;;19.30;31.32;100879.53;4950608;28;20463;-59
2021/03/20 08:38:09;;;;;;;5.55;2.05;;;;;;;19.59;30.61;100879.72;4961598;28;20127;-60
2021/03/20 08:40:38;;;;;;;4.13;2.40;;;;;;;19.94;29.80;100891.06;4962582;28;20050;-60
2021/03/20 08:43:26;;;;;;;3.05;1.48;;;;;;;20.22;29.32;100885.81;4965517;28;20047;-60
2021/03/20 08:45:56;;;;;;;4.47;1.50;;;;;;;20.41;28.58;100882.63;4964025;28;20139;-60
2021/03/20 08:48:55;;;;;;;4.25;1.70;;;;;;;20.45;28.25;100892.09;4967605;28;20050;-58
2021/03/20 08:52:03;;;;;;;2.80;1.50;;;;;;;20.43;27.63;100896.44;4955883;28;20073;-59
2021/03/20 08:54:54;;;;;;;3.15;1.45;;;;;;;20.50;27.43;100903.28;4974982;28;20046;-59
2021/03/20 08:57:57;;;;;;;3.88;1.48;;;;;;;20.50;27.38;100903.28;4975284;28;20057;-60
2021/03/20 09:00:31;;;;;;;2.97;1.33;;;;;;;20.72;26.72;100916.41;4975479;28;20053;-59
2021/03/20 09:03:05;;;;;;;1.73;1.40;;;;;;;20.97;26.20;100910.94;4974416;28;20066;-58
2021/03/20 09:05:35;;;;;;;5.28;1.67;;;;;;;21.32;26.26;100908.69;4978758;28;20066;-59
2021/03/20 09:08:12;;;;;;;3.40;1.40;;;;;;;21.55;25.78;100914.09;4975139;28;20050;-59
2021/03/20 09:10:38;;;;;;;2.60;1.75;;;;;;;21.71;25.69;100910.28;4974065;28;20070;-60
2021/03/20 09:13:22;;;;;;;7.13;3.28;;;;;;;21.77;25.64;100888.97;4977587;28;20046;-59
2021/03/20 09:15:56;;;;;;;5.25;2.55;;;;;;;22.09;25.11;100905.59;4973909;28;20411;-59
2021/03/20 09:18:23;;;;;;;3.92;1.50;;;;;;;22.22;24.85;100904.44;4973749;28;20042;-59
2021/03/20 09:20:57;;;;;;;1.77;1.33;;;;;;;22.30;24.59;100900.69;4975379;28;20051;-59
2021/03/20 09:23:28;;;;;;;5.93;1.45;;;;;;;22.38;24.38;100896.91;4978045;28;20077;-59
2021/03/20 09:26:11;;;;;;;4.82;1.65;;;;;;;22.57;24.03;100899.22;4980118;28;20495;-60
2021/03/20 09:28:56;;;;;;;4.43;1.23;;;;;;;22.24;23.23;100922.00;4978731;28;20219;-59
2021/03/20 09:31:28;;;;;;;2.13;1.20;;;;;;;21.85;22.37;100917.69;4978733;28;20133;-60
2021/03/20 09:34:18;;;;;;;7.75;1.00;;;;;;;22.00;22.67;100909.34;4974277;28;20058;-60
2021/03/20 09:36:51;;;;;;;2.90;1.35;;;;;;;22.23;22.64;100911.81;4973546;28;20121;-60
2021/03/20 09:39:43;;;;;;;2.10;1.35;;;;;;;22.18;22.43;100943.31;4977476;28;20043;-60
2021/03/20 09:42:27;;;;;;;3.08;1.05;;;;;;;21.72;22.34;100929.00;4972840;28;20137;-59
2021/03/20 09:45:19;;;;;;;1.77;1.30;;;;;;;20.85;22.29;100933.53;4976631;28;20235;-60
2021/03/20 09:48:01;;;;;;;2.75;1.23;;;;;;;20.88;22.46;100928.00;4969101;28;20393;-59
2021/03/20 09:50:29;;;;;;;9.65;1.50;;;;;;;21.50;22.42;100950.06;4974869;28;20054;-59
2021/03/20 09:53:09;;;;;;;;;;;;;;;21.36;22.77;100952.31;4974415;28;20063;-59
2021/03/20 09:55:42;;;;;;;3.28;1.48;;;;;;;21.62;22.42;100959.84;4974382;28;20310;-58
2021/03/20 09:58:23;;;;;;;1.85;1.08;;;;;;;21.25;21.95;100957.53;4978622;28;20419;-60
2021/03/20 10:00:50;;;;;;;3.38;1.60;;;;;;;20.88;22.01;100942.19;4974118;28;20063;-59
2021/03/20 10:03:35;;;;;;;3.28;1.60;;;;;;;20.80;22.23;100928.88;4977060;28;20133;-59
2021/03/20 10:06:17;;;;;;;1.40;1.20;;;;;;;21.20;21.99;100946.38;4973736;28;20117;-59
2021/03/20 10:08:58;;;;;;;3.85;1.98;;;;;;;21.53;21.94;100951.38;4974237;28;20043;-59
2021/03/20 10:11:41;;;;;;;2.95;1.45;;;;;;;21.52;21.96;100939.19;4974090;28;20043;-59
2021/03/20 10:14:30;;;;;;;4.20;1.75;;;;;;;20.71;21.73;100942.25;4973680;28;20130;-59
2021/03/20 10:17:24;;;;;;;3.38;2.00;;;;;;;20.15;22.09;100930.06;4972267;28;20046;-59
2021/03/20 10:19:51;;;;;;;5.78;2.50;;;;;;;20.74;22.42;100925.38;4973407;28;20048;-58
2021/03/20 10:22:34;;;;;;;3.17;2.22;;;;;;;21.40;22.47;100933.44;4977226;28;20049;-59
2021/03/20 10:25:02;;;;;;;3.20;1.80;;;;;;;21.92;21.81;100946.41;4981371;28;20043;-60
2021/03/20 10:27:35;;;;;;;2.50;1.38;;;;;;;21.75;21.76;100945.34;4979429;28;20495;-63
2021/03/20 10:30:15;;;;;;;2.22;1.60;;;;;;;21.79;21.76;100947.50;4981566;28;20420;-63
2021/03/20 10:33:07;;;;;;;7.03;1.80;;;;;;;21.82;21.46;100950.50;4982325;28;20042;-62
2021/03/20 10:35:38;;;;;;;3.50;1.48;;;;;;;22.03;21.50;100932.56;4981017;28;20063;-63
2021/03/20 10:38:23;;;;;;;3.40;2.08;;;;;;;22.14;21.71;100933.81;4968092;28;20053;-61
2021/03/20 10:41:20;;;;;;;2.72;1.80;;;;;;;22.19;21.50;100937.31;4983024;28;20043;-60
2021/03/20 10:43:55;;;;;;;7.05;2.13;;;;;;;22.45;21.60;100930.50;4983521;28;20047;-66
2021/03/20 10:46:23;;;;;;;3.20;1.75;;;;;;;22.39;21.30;100904.28;4981198;28;20050;-58
2021/03/20 10:48:52;;;;;;;5.78;2.50;;;;;;;22.26;21.25;100928.19;4986263;28;20046;-60
2021/03/20 10:51:21;;;;;;;3.72;2.08;;;;;;;22.65;21.50;100928.75;4989302;28;20509;-59
2021/03/20 10:53:51;;;;;;;5.80;2.22;;;;;;;23.07;21.09;100937.13;4990682;28;20056;-60
2021/03/20 10:56:24;;;;;;;4.20;2.15;;;;;;;23.19;20.96;100931.41;4989712;28;20046;-58
2021/03/20 10:58:50;;;;;;;4.85;2.15;;;;;;;23.37;20.97;100927.13;4969774;28;20057;-58
2021/03/20 11:01:29;;;;;;;3.17;2.00;;;;;;;23.65;21.22;100915.75;4981849;28;20558;-59
2021/03/20 11:03:56;;;;;;;3.60;2.58;;;;;;;24.12;21.21;100922.88;4968750;28;20563;-58
2021/03/20 11:06:24;;;;;;;3.25;2.40;;;;;;;24.47;20.81;100925.94;4980285;28;20484;-60
2021/03/20 11:09:06;;;;;;;5.18;2.67;;;;;;;24.74;20.25;100929.09;4984227;28;20050;-58
2021/03/20 11:11:36;;;;;;;6.78;2.83;;;;;;;24.89;20.38;100918.84;4982540;28;20443;-58
2021/03/20 11:14:04;;;;;;;;;;;;;;;24.46;21.48;100910.00;4982841;28;20043;-57
2021/03/20 11:16:31;;;;;;;4.88;2.75;;;;;;;25.10;20.77;100916.56;4985065;28;19928;-58
2021/03/20 11:19:07;;;;;;;6.15;2.65;;;;;;;25.42;20.05;100890.78;4983771;28;20046;-58
2021/03/20 11:21:39;;;;;;;3.70;2.17;;;;;;;25.83;19.62;100911.31;4985832;28;20042;-58
2021/03/20 11:24:24;;;;;;;4.85;2.05;;;;;;;25.76;19.37;100912.78;4983051;28;20541;-58
2021/03/20 11:26:53;;;;;;;6.20;2.13;;;;;;;25.80;18.70;100906.34;4983202;28;20181;-58
2021/03/20 11:29:29;;;;;;;4.95;1.80;;;;;;;25.81;18.62;100893.69;4986480;28;20050;-59
2021/03/20 11:31:55;;;;;;;4.40;2.50;;;;;;;25.74;18.80;100920.09;4988407;28;20061;-58
2021/03/20 11:34:42;;;;;;;3.97;2.20;;;;;;;25.72;18.97;100897.59;4982168;28;20050;-57
2021/03/20 11:37:16;;;;;;;5.90;2.88;;;;;;;25.93;18.55;100890.69;4990048;28;20052;-58
2021/03/20 11:39:43;;;;;;;6.00;2.25;;;;;;;26.08;17.88;100915.53;4982153;28;20062;-57
2021/03/20 11:42:13;;;;;;;3.35;1.73;;;;;;;25.87;17.57;100903.63;4982397;28;20056;-58
2021/03/20 11:44:46;;;;;;;8.35;2.08;;;;;;;25.57;18.07;100881.31;4975997;28;20146;-60
2021/03/20 11:47:32;;;;;;;4.68;2.45;;;;;;;26.06;17.93;100883.63;4980529;28;20042;-58
2021/03/20 11:50:03;;;;;;;5.32;2.17;;;;;;;26.21;17.54;100891.25;4986197;28;20407;-58
2021/03/20 11:52:49;;;;;;;4.97;2.78;;;;;;;25.89;17.42;100907.78;4982980;28;20050;-56
2021/03/20 11:55:37;;;;;;;6.95;2.10;;;;;;;25.74;17.71;100897.19;4986806;28;20404;-59
2021/03/20 11:58:21;;;;;;;2.88;2.10;;;;;;;26.09;17.03;100893.47;4986690;28;20062;-61
2021/03/20 12:00:48;;;;;;;4.60;2.08;;;;;;;26.52;16.64;100883.69;4986022;28;20502;-66
2021/03/20 12:03:21;;;;;;;3.83;2.08;;;;;;;27.20;16.62;100889.75;4982850;28;20474;-64
2021/03/20 12:05:53;;;;;;;3.33;2.22;;;;;;;27.72;16.44;100863.03;4990040;28;20047;-65
2021/03/20 12:08:27;;;;;;;3.80;2.30;;;;;;;28.45;15.83;100880.75;4972070;28;20042;-62
2021/03/20 12:11:06;;;;;;;2.53;1.70;;;;;;;28.88;15.51;100863.88;4987094;28;20050;-60
2021/03/20 12:13:54;;;;;;;4.65;2.67;;;;;;;29.32;15.21;100877.38;4986254;28;20496;-62